Nearby METAR Reports

 

KSJC - San Jose, California, USA
Distance from station: NE 9mi, 14km
Updated: Thu, 13-Dec-2018 7:53pm PST
Few Clouds
Few Clouds
 Wind from SSE
Wind: SSE 3 mph , 6 km/h
Temperature: 54°F , 12°C
Dew Point: 39°F , 4°C
Humidity: 58%
Barometer: 30.13 inHg , 1020.3 hPa
Clouds: Few Clouds
Visibility: 10 miles , 16 km
Cloud details: Few Clouds 6000 ft
Few Clouds 8000 ft
2018/12/14 03:53 KSJC 140353Z 15003KT 10SM FEW060 FEW080 12/04 A3013 RMK AO2 SLP204 T01170039
KNUQ - Moffett Nas/Mtn, California, USA
Distance from station: N 9mi, 14km
Updated: Thu, 13-Dec-2018 7:56pm PST
Clear
Clear
 Wind from S
Wind: S 3 mph , 6 km/h
Temperature: 52°F , 11°C
Dew Point: 43°F , 6°C
Humidity: 72%
Barometer: 30.14 inHg , 1020.7 hPa
Clouds: Clear
Visibility: 10 miles , 16 km
2018/12/14 03:56 KNUQ 140356Z 19003KT 10SM CLR 11/06 A3014 RMK AO2 SLP208 T01110061
 
KPAO - Palo Alto, California, USA
Distance from station: NNW 14mi, 23km
Updated: Thu, 13-Dec-2018 6:47pm PST
NOT Current
Clear
Clear
 Wind from calm
Wind: Calm
Temperature: 54°F , 12°C
Dew Point: 46°F , 8°C
Humidity: 77%
Barometer: 30.15 inHg , 1021 hPa
Clouds: Clear
Visibility: 10 miles , 16 km
2018/12/14 02:47 KPAO 140247Z 00000KT 10SM SKC 12/08 A3015
KRHV - San Jose/Reid, California, USA
Distance from station: ENE 12mi, 19km
Updated: Thu, 13-Dec-2018 7:48pm PST
Clear
Clear
 Wind from calm
Wind: Calm
Temperature: 48°F , 9°C
Dew Point: 41°F , 5°C
Humidity: 76%
Barometer: 30.12 inHg , 1020 hPa
Clouds: Clear
Visibility: 10 miles , 16 km
2018/12/14 03:48 KRHV 140348Z 00000KT 10SM SKC 09/05 A3012
 
KOAK - Oakland, California, USA
Distance from station: NNW 31mi, 50km
Updated: Thu, 13-Dec-2018 7:53pm PST
Few Clouds
Few Clouds
 Wind from ENE
Wind: ENE 8 mph , 13 km/h
Temperature: 52°F , 11°C
Dew Point: 43°F , 6°C
Humidity: 72%
Barometer: 30.14 inHg , 1020.7 hPa
Clouds: Few Clouds
Visibility: 7 miles , 11 km
Cloud details: Few Clouds 20000 ft
2018/12/14 03:53 KOAK 140353Z 07007KT 7SM FEW200 11/06 A3014 RMK AO2 SLP204 T01060061
KSQL - San Carlos Airpo, California, USA
Distance from station: NW 21mi, 34km
Updated: Thu, 13-Dec-2018 7:47pm PST
Clear
Clear
 Wind from varies
Wind: varies 5 mph , 7 km/h
Temperature: 54°F , 12°C
Dew Point: 46°F , 8°C
Humidity: 77%
Barometer: 30.13 inHg , 1020.3 hPa
Clouds: Clear
Visibility: 10 miles , 16 km
2018/12/14 03:47 KSQL 140347Z VRB04KT 10SM SKC 12/08 A3013
 
KSFO - San Francisco, California, USA
Distance from station: NW 30mi, 49km
Updated: Thu, 13-Dec-2018 7:56pm PST
Clear
Clear
 Wind from ESE
Wind: ESE 3 mph , 6 km/h
Temperature: 54°F , 12°C
Dew Point: 46°F , 8°C
Humidity: 77%
Barometer: 30.13 inHg , 1020.3 hPa
Clouds: Clear
Visibility: 10 miles , 16 km
2018/12/14 03:56 KSFO 140356Z 12003KT 10SM CLR 12/08 A3013 RMK AO2 SLP201 T01170078
KE16 - San Martin, California, USA
Distance from station: ESE 27mi, 43km
Updated: Thu, 13-Dec-2018 7:25pm PST

 Wind from ENE
Wind: ENE 5 mph , 7 km/h
Barometer: 30.16 inHg , 1021.3 hPa
2018/12/14 03:25 KE16 140325Z AUTO 07004KT A3016 RMK AO2
 
KWVI - Watsonville, California, USA
Distance from station: SSE 27mi, 44km
Updated: Thu, 13-Dec-2018 7:53pm PST
Clear
Clear
 Wind from calm
Wind: Calm
Temperature: 48°F , 9°C
Dew Point: 39°F , 4°C
Humidity: 71%
Barometer: 30.15 inHg , 1021 hPa
Clouds: Clear
Visibility: 10 miles , 16 km
2018/12/14 03:53 KWVI 140353Z AUTO 00000KT 10SM CLR 09/04 A3015 RMK AO2 SLP209 T00940044
KHAF - Half Moon Bay, California, USA
Distance from station: WNW 31mi, 50km
Updated: Thu, 13-Dec-2018 8:00pm PST
Mostly cloudy
Mostly cloudy
 Wind from calm
Wind: Calm
Temperature: 48°F , 9°C
Dew Point: 39°F , 4°C
Humidity: 71%
Barometer: 30.12 inHg , 1020 hPa
Clouds: Mostly cloudy
Visibility: 8 miles , 13 km
Cloud details: Mostly cloudy 200 ft
2018/12/14 04:00 KHAF 140400Z AUTO 00000KT 8SM BKN002 09/04 A3012 RMK AO2
 
KHWD - Hayward, California, USA
Distance from station: N 28mi, 44km
Updated: Thu, 13-Dec-2018 7:54pm PST
Clear
Clear
 Wind from ENE
Wind: ENE 8 mph , 13 km/h
Temperature: 55°F , 13°C
Dew Point: 45°F , 7°C
Humidity: 67%
Barometer: 30.13 inHg , 1020.3 hPa
Clouds: Clear
Visibility: 7 miles , 11 km
2018/12/14 03:54 KHWD 140354Z 06007KT 7SM CLR 13/07 A3013 RMK AO2 SLP212 T01330067
KLVK - Livermore, California, USA
Distance from station: NNE 31mi, 51km
Updated: Thu, 13-Dec-2018 7:53pm PST
Haze, Clear
Haze, Clear
 Wind from ENE
Wind: ENE 10 mph , 17 km/h
Temperature: 50°F , 10°C
Wind Chill: 46°F , 8°C
Dew Point: 43°F , 6°C
Humidity: 76%
Barometer: 30.14 inHg , 1020.7 hPa
Summary: Haze
Clouds: Clear
Visibility: 3 miles , 5 km
2018/12/14 03:53 KLVK 140353Z 07009KT 3SM HZ CLR 10/06 A3014 RMK AO2 SLP209 T01000061